sensor_id;sensor_type;location;lat;lon;timestamp;P1;durP1;ratioP1;P2;durP2;ratioP2
20653;SDS011;21083;50.898;4.902;2023-03-05T00:01:59;12.98;;;4.13;;
20653;SDS011;21083;50.898;4.902;2023-03-05T00:04:29;9.63;;;3.53;;
20653;SDS011;21083;50.898;4.902;2023-03-05T00:06:57;12.05;;;3.92;;
20653;SDS011;21083;50.898;4.902;2023-03-05T00:09:24;13.05;;;3.60;;
20653;SDS011;21083;50.898;4.902;2023-03-05T00:11:51;12.52;;;4.18;;
20653;SDS011;21083;50.898;4.902;2023-03-05T00:14:18;10.38;;;3.60;;
20653;SDS011;21083;50.898;4.902;2023-03-05T00:16:46;9.85;;;3.70;;
20653;SDS011;21083;50.898;4.902;2023-03-05T00:19:14;12.50;;;3.65;;
20653;SDS011;21083;50.898;4.902;2023-03-05T00:21:42;12.57;;;4.07;;
20653;SDS011;21083;50.898;4.902;2023-03-05T00:24:12;9.80;;;3.78;;
20653;SDS011;21083;50.898;4.902;2023-03-05T00:26:43;13.23;;;3.72;;
20653;SDS011;21083;50.898;4.902;2023-03-05T00:29:11;10.88;;;3.50;;
20653;SDS011;21083;50.898;4.902;2023-03-05T00:31:44;11.73;;;4.32;;
20653;SDS011;21083;50.898;4.902;2023-03-05T00:34:12;10.25;;;3.60;;
20653;SDS011;21083;50.898;4.902;2023-03-05T00:36:43;12.65;;;3.60;;
20653;SDS011;21083;50.898;4.902;2023-03-05T00:39:14;8.82;;;3.80;;
20653;SDS011;21083;50.898;4.902;2023-03-05T00:41:42;10.93;;;3.72;;
20653;SDS011;21083;50.898;4.902;2023-03-05T00:44:09;12.13;;;4.20;;
20653;SDS011;21083;50.898;4.902;2023-03-05T00:46:39;11.98;;;3.92;;
20653;SDS011;21083;50.898;4.902;2023-03-05T00:49:08;10.90;;;3.40;;
20653;SDS011;21083;50.898;4.902;2023-03-05T00:51:36;11.75;;;4.03;;
20653;SDS011;21083;50.898;4.902;2023-03-05T00:54:05;10.63;;;3.90;;
20653;SDS011;21083;50.898;4.902;2023-03-05T00:56:33;10.63;;;3.50;;
20653;SDS011;21083;50.898;4.902;2023-03-05T00:59:00;12.55;;;4.13;;
20653;SDS011;21083;50.898;4.902;2023-03-05T01:01:28;11.00;;;3.60;;
20653;SDS011;21083;50.898;4.902;2023-03-05T01:03:56;11.15;;;3.40;;
20653;SDS011;21083;50.898;4.902;2023-03-05T01:06:26;14.45;;;3.80;;
20653;SDS011;21083;50.898;4.902;2023-03-05T01:08:55;11.48;;;3.83;;
20653;SDS011;21083;50.898;4.902;2023-03-05T01:11:25;11.27;;;3.67;;
20653;SDS011;21083;50.898;4.902;2023-03-05T01:13:52;11.70;;;3.80;;
20653;SDS011;21083;50.898;4.902;2023-03-05T01:16:19;14.48;;;4.22;;
20653;SDS011;21083;50.898;4.902;2023-03-05T01:18:48;10.85;;;4.32;;
20653;SDS011;21083;50.898;4.902;2023-03-05T01:21:16;12.13;;;3.50;;
20653;SDS011;21083;50.898;4.902;2023-03-05T01:23:44;14.60;;;3.42;;
20653;SDS011;21083;50.898;4.902;2023-03-05T01:26:11;15.32;;;3.80;;
20653;SDS011;21083;50.898;4.902;2023-03-05T01:28:42;11.05;;;3.83;;
20653;SDS011;21083;50.898;4.902;2023-03-05T01:31:10;13.50;;;3.40;;
20653;SDS011;21083;50.898;4.902;2023-03-05T01:33:38;13.02;;;3.67;;
20653;SDS011;21083;50.898;4.902;2023-03-05T01:36:07;13.88;;;3.47;;
20653;SDS011;21083;50.898;4.902;2023-03-05T01:38:41;15.90;;;4.03;;
20653;SDS011;21083;50.898;4.902;2023-03-05T01:41:11;11.63;;;3.75;;
20653;SDS011;21083;50.898;4.902;2023-03-05T01:43:39;9.52;;;3.22;;
20653;SDS011;21083;50.898;4.902;2023-03-05T01:49:08;9.18;;;3.17;;
20653;SDS011;21083;50.898;4.902;2023-03-05T01:51:41;8.85;;;3.53;;
20653;SDS011;21083;50.898;4.902;2023-03-05T01:54:14;13.73;;;3.55;;
20653;SDS011;21083;50.898;4.902;2023-03-05T01:56:44;15.82;;;3.65;;
20653;SDS011;21083;50.898;4.902;2023-03-05T01:59:13;12.73;;;3.58;;
20653;SDS011;21083;50.898;4.902;2023-03-05T02:01:43;14.45;;;3.47;;
20653;SDS011;21083;50.898;4.902;2023-03-05T02:04:13;10.32;;;3.30;;
20653;SDS011;21083;50.898;4.902;2023-03-05T02:06:43;8.55;;;3.03;;
20653;SDS011;21083;50.898;4.902;2023-03-05T02:09:11;11.02;;;3.35;;
20653;SDS011;21083;50.898;4.902;2023-03-05T02:11:39;11.82;;;3.97;;
20653;SDS011;21083;50.898;4.902;2023-03-05T02:14:07;14.13;;;3.50;;
20653;SDS011;21083;50.898;4.902;2023-03-05T02:16:35;11.60;;;4.10;;
20653;SDS011;21083;50.898;4.902;2023-03-05T02:19:05;16.38;;;3.72;;
20653;SDS011;21083;50.898;4.902;2023-03-05T02:21:39;12.80;;;3.33;;
20653;SDS011;21083;50.898;4.902;2023-03-05T02:24:09;15.15;;;3.83;;
20653;SDS011;21083;50.898;4.902;2023-03-05T02:26:38;11.07;;;3.58;;
20653;SDS011;21083;50.898;4.902;2023-03-05T02:29:05;10.02;;;3.38;;
20653;SDS011;21083;50.898;4.902;2023-03-05T02:31:34;13.05;;;3.80;;
20653;SDS011;21083;50.898;4.902;2023-03-05T02:34:03;11.82;;;3.20;;
20653;SDS011;21083;50.898;4.902;2023-03-05T02:36:31;10.40;;;2.95;;
20653;SDS011;21083;50.898;4.902;2023-03-05T02:38:59;12.82;;;3.42;;
20653;SDS011;21083;50.898;4.902;2023-03-05T02:41:26;10.95;;;3.67;;
20653;SDS011;21083;50.898;4.902;2023-03-05T02:43:53;11.52;;;3.65;;
20653;SDS011;21083;50.898;4.902;2023-03-05T02:46:21;11.98;;;3.38;;
20653;SDS011;21083;50.898;4.902;2023-03-05T02:48:56;9.68;;;3.40;;
20653;SDS011;21083;50.898;4.902;2023-03-05T02:51:23;12.00;;;4.78;;
20653;SDS011;21083;50.898;4.902;2023-03-05T02:53:52;10.90;;;3.80;;
20653;SDS011;21083;50.898;4.902;2023-03-05T02:56:21;11.63;;;3.63;;
20653;SDS011;21083;50.898;4.902;2023-03-05T02:58:48;11.68;;;3.85;;
20653;SDS011;21083;50.898;4.902;2023-03-05T03:01:17;12.65;;;3.75;;
20653;SDS011;21083;50.898;4.902;2023-03-05T03:03:44;12.57;;;3.85;;
20653;SDS011;21083;50.898;4.902;2023-03-05T03:06:13;11.57;;;4.10;;
20653;SDS011;21083;50.898;4.902;2023-03-05T03:08:40;11.90;;;4.10;;
20653;SDS011;21083;50.898;4.902;2023-03-05T03:11:08;16.13;;;4.10;;
20653;SDS011;21083;50.898;4.902;2023-03-05T03:13:40;15.38;;;4.10;;
20653;SDS011;21083;50.898;4.902;2023-03-05T03:16:07;19.20;;;5.15;;
20653;SDS011;21083;50.898;4.902;2023-03-05T03:18:36;14.80;;;4.28;;
20653;SDS011;21083;50.898;4.902;2023-03-05T03:21:03;9.90;;;4.30;;
20653;SDS011;21083;50.898;4.902;2023-03-05T03:23:33;17.75;;;4.57;;
20653;SDS011;21083;50.898;4.902;2023-03-05T03:26:00;16.23;;;4.55;;
20653;SDS011;21083;50.898;4.902;2023-03-05T03:28:27;18.00;;;5.20;;
20653;SDS011;21083;50.898;4.902;2023-03-05T03:30:56;17.75;;;5.10;;
20653;SDS011;21083;50.898;4.902;2023-03-05T03:33:23;13.63;;;4.55;;
20653;SDS011;21083;50.898;4.902;2023-03-05T03:35:51;14.23;;;4.32;;
20653;SDS011;21083;50.898;4.902;2023-03-05T03:38:20;14.80;;;5.25;;
20653;SDS011;21083;50.898;4.902;2023-03-05T03:40:48;19.83;;;5.35;;
20653;SDS011;21083;50.898;4.902;2023-03-05T03:43:16;15.43;;;4.68;;
20653;SDS011;21083;50.898;4.902;2023-03-05T03:45:43;15.80;;;5.13;;
20653;SDS011;21083;50.898;4.902;2023-03-05T03:48:11;14.32;;;5.30;;
20653;SDS011;21083;50.898;4.902;2023-03-05T03:50:38;20.08;;;6.03;;
20653;SDS011;21083;50.898;4.902;2023-03-05T03:53:05;19.45;;;6.43;;
20653;SDS011;21083;50.898;4.902;2023-03-05T03:55:34;13.13;;;5.53;;
20653;SDS011;21083;50.898;4.902;2023-03-05T03:58:01;15.00;;;5.30;;
20653;SDS011;21083;50.898;4.902;2023-03-05T04:00:28;17.90;;;5.75;;
20653;SDS011;21083;50.898;4.902;2023-03-05T04:02:55;13.57;;;5.00;;
20653;SDS011;21083;50.898;4.902;2023-03-05T04:05:24;17.02;;;5.85;;
20653;SDS011;21083;50.898;4.902;2023-03-05T04:07:51;20.52;;;6.30;;
20653;SDS011;21083;50.898;4.902;2023-03-05T04:10:18;17.90;;;6.22;;
20653;SDS011;21083;50.898;4.902;2023-03-05T04:12:45;15.98;;;5.82;;
20653;SDS011;21083;50.898;4.902;2023-03-05T04:15:12;16.50;;;6.60;;
20653;SDS011;21083;50.898;4.902;2023-03-05T04:17:38;14.18;;;5.22;;
20653;SDS011;21083;50.898;4.902;2023-03-05T04:20:06;19.13;;;6.32;;
20653;SDS011;21083;50.898;4.902;2023-03-05T04:22:36;18.38;;;6.18;;
20653;SDS011;21083;50.898;4.902;2023-03-05T04:25:03;18.27;;;6.13;;
20653;SDS011;21083;50.898;4.902;2023-03-05T04:27:32;18.15;;;6.22;;
20653;SDS011;21083;50.898;4.902;2023-03-05T04:30:00;17.50;;;6.25;;
20653;SDS011;21083;50.898;4.902;2023-03-05T04:32:27;17.60;;;7.03;;
20653;SDS011;21083;50.898;4.902;2023-03-05T04:34:54;16.20;;;6.55;;
20653;SDS011;21083;50.898;4.902;2023-03-05T04:37:21;19.10;;;7.18;;
20653;SDS011;21083;50.898;4.902;2023-03-05T04:39:50;17.77;;;6.82;;
20653;SDS011;21083;50.898;4.902;2023-03-05T04:42:17;15.40;;;6.80;;
20653;SDS011;21083;50.898;4.902;2023-03-05T04:44:45;18.60;;;7.45;;
20653;SDS011;21083;50.898;4.902;2023-03-05T04:47:12;19.08;;;7.03;;
20653;SDS011;21083;50.898;4.902;2023-03-05T04:49:39;18.33;;;7.32;;
20653;SDS011;21083;50.898;4.902;2023-03-05T04:52:06;20.02;;;6.88;;
20653;SDS011;21083;50.898;4.902;2023-03-05T04:54:33;22.73;;;8.05;;
20653;SDS011;21083;50.898;4.902;2023-03-05T04:57:02;22.92;;;7.45;;
20653;SDS011;21083;50.898;4.902;2023-03-05T04:59:29;16.08;;;6.70;;
20653;SDS011;21083;50.898;4.902;2023-03-05T05:01:56;19.90;;;8.25;;
20653;SDS011;21083;50.898;4.902;2023-03-05T05:04:23;20.10;;;7.72;;
20653;SDS011;21083;50.898;4.902;2023-03-05T05:06:53;16.08;;;6.85;;
20653;SDS011;21083;50.898;4.902;2023-03-05T05:09:21;20.80;;;7.10;;
20653;SDS011;21083;50.898;4.902;2023-03-05T05:11:48;17.02;;;7.05;;
20653;SDS011;21083;50.898;4.902;2023-03-05T05:14:17;18.73;;;6.78;;
20653;SDS011;21083;50.898;4.902;2023-03-05T05:16:44;17.40;;;7.18;;
20653;SDS011;21083;50.898;4.902;2023-03-05T05:19:11;17.73;;;6.68;;
20653;SDS011;21083;50.898;4.902;2023-03-05T05:21:38;16.13;;;6.50;;
20653;SDS011;21083;50.898;4.902;2023-03-05T05:24:05;22.30;;;8.45;;
20653;SDS011;21083;50.898;4.902;2023-03-05T05:26:32;22.00;;;7.28;;
20653;SDS011;21083;50.898;4.902;2023-03-05T05:28:59;14.07;;;6.15;;
20653;SDS011;21083;50.898;4.902;2023-03-05T05:31:27;17.65;;;6.82;;
20653;SDS011;21083;50.898;4.902;2023-03-05T05:33:54;22.35;;;7.40;;
20653;SDS011;21083;50.898;4.902;2023-03-05T05:36:21;16.42;;;5.80;;
20653;SDS011;21083;50.898;4.902;2023-03-05T05:38:48;19.25;;;6.68;;
20653;SDS011;21083;50.898;4.902;2023-03-05T05:41:16;15.52;;;5.75;;
20653;SDS011;21083;50.898;4.902;2023-03-05T05:43:44;16.95;;;6.43;;
20653;SDS011;21083;50.898;4.902;2023-03-05T05:46:12;16.17;;;5.93;;
20653;SDS011;21083;50.898;4.902;2023-03-05T05:48:42;14.18;;;6.18;;
20653;SDS011;21083;50.898;4.902;2023-03-05T05:51:11;13.40;;;5.63;;
20653;SDS011;21083;50.898;4.902;2023-03-05T05:53:40;17.05;;;6.18;;
20653;SDS011;21083;50.898;4.902;2023-03-05T05:56:08;16.70;;;5.35;;
20653;SDS011;21083;50.898;4.902;2023-03-05T05:58:37;17.58;;;5.43;;
20653;SDS011;21083;50.898;4.902;2023-03-05T06:01:10;20.40;;;5.50;;
20653;SDS011;21083;50.898;4.902;2023-03-05T06:03:38;14.95;;;5.65;;
20653;SDS011;21083;50.898;4.902;2023-03-05T06:06:08;16.38;;;5.00;;
20653;SDS011;21083;50.898;4.902;2023-03-05T06:08:35;23.85;;;5.70;;
20653;SDS011;21083;50.898;4.902;2023-03-05T06:11:02;17.25;;;5.75;;
20653;SDS011;21083;50.898;4.902;2023-03-05T06:13:30;19.65;;;5.68;;
20653;SDS011;21083;50.898;4.902;2023-03-05T06:15:57;18.45;;;5.75;;
20653;SDS011;21083;50.898;4.902;2023-03-05T06:18:25;18.38;;;5.93;;
20653;SDS011;21083;50.898;4.902;2023-03-05T06:20:53;16.30;;;5.55;;
20653;SDS011;21083;50.898;4.902;2023-03-05T06:23:22;15.60;;;6.18;;
20653;SDS011;21083;50.898;4.902;2023-03-05T06:25:50;13.57;;;5.60;;
20653;SDS011;21083;50.898;4.902;2023-03-05T06:28:17;13.57;;;6.00;;
20653;SDS011;21083;50.898;4.902;2023-03-05T06:30:45;11.70;;;4.88;;
20653;SDS011;21083;50.898;4.902;2023-03-05T06:33:13;13.77;;;4.75;;
20653;SDS011;21083;50.898;4.902;2023-03-05T06:35:41;17.17;;;4.90;;
20653;SDS011;21083;50.898;4.902;2023-03-05T06:38:09;15.13;;;4.78;;
20653;SDS011;21083;50.898;4.902;2023-03-05T06:40:38;13.90;;;4.78;;
20653;SDS011;21083;50.898;4.902;2023-03-05T06:43:06;15.10;;;5.90;;
20653;SDS011;21083;50.898;4.902;2023-03-05T06:45:34;19.15;;;6.28;;
20653;SDS011;21083;50.898;4.902;2023-03-05T06:48:02;14.38;;;5.38;;
20653;SDS011;21083;50.898;4.902;2023-03-05T06:50:33;16.10;;;5.65;;
20653;SDS011;21083;50.898;4.902;2023-03-05T06:53:01;14.95;;;5.43;;
20653;SDS011;21083;50.898;4.902;2023-03-05T06:55:29;15.75;;;5.50;;
20653;SDS011;21083;50.898;4.902;2023-03-05T06:58:04;16.92;;;5.30;;
20653;SDS011;21083;50.898;4.902;2023-03-05T07:00:32;13.68;;;4.78;;
20653;SDS011;21083;50.898;4.902;2023-03-05T07:03:00;17.02;;;5.28;;
20653;SDS011;21083;50.898;4.902;2023-03-05T07:05:28;13.55;;;4.80;;
20653;SDS011;21083;50.898;4.902;2023-03-05T07:07:54;18.13;;;5.20;;
20653;SDS011;21083;50.898;4.902;2023-03-05T07:10:25;15.57;;;4.70;;
20653;SDS011;21083;50.898;4.902;2023-03-05T07:12:53;15.50;;;5.07;;
20653;SDS011;21083;50.898;4.902;2023-03-05T07:15:22;13.82;;;4.97;;
20653;SDS011;21083;50.898;4.902;2023-03-05T07:17:54;12.63;;;5.00;;
20653;SDS011;21083;50.898;4.902;2023-03-05T07:20:21;17.98;;;6.72;;
20653;SDS011;21083;50.898;4.902;2023-03-05T07:22:48;19.85;;;5.05;;
20653;SDS011;21083;50.898;4.902;2023-03-05T07:25:15;12.98;;;4.93;;
20653;SDS011;21083;50.898;4.902;2023-03-05T07:27:45;15.32;;;5.22;;
20653;SDS011;21083;50.898;4.902;2023-03-05T07:30:13;13.60;;;5.30;;
20653;SDS011;21083;50.898;4.902;2023-03-05T07:32:42;19.77;;;4.70;;
20653;SDS011;21083;50.898;4.902;2023-03-05T07:35:09;20.52;;;5.40;;
20653;SDS011;21083;50.898;4.902;2023-03-05T07:37:36;18.48;;;6.20;;
20653;SDS011;21083;50.898;4.902;2023-03-05T07:40:03;12.93;;;5.70;;
20653;SDS011;21083;50.898;4.902;2023-03-05T07:42:31;20.98;;;5.97;;
20653;SDS011;21083;50.898;4.902;2023-03-05T07:44:59;17.40;;;6.90;;
20653;SDS011;21083;50.898;4.902;2023-03-05T07:47:26;21.75;;;5.85;;
20653;SDS011;21083;50.898;4.902;2023-03-05T07:49:55;16.30;;;5.95;;
20653;SDS011;21083;50.898;4.902;2023-03-05T07:52:22;16.00;;;5.95;;
20653;SDS011;21083;50.898;4.902;2023-03-05T07:54:49;17.75;;;6.20;;
20653;SDS011;21083;50.898;4.902;2023-03-05T07:57:16;16.85;;;6.07;;
20653;SDS011;21083;50.898;4.902;2023-03-05T07:59:43;20.65;;;6.43;;
20653;SDS011;21083;50.898;4.902;2023-03-05T08:02:10;15.20;;;6.55;;
20653;SDS011;21083;50.898;4.902;2023-03-05T08:04:38;21.27;;;6.32;;
20653;SDS011;21083;50.898;4.902;2023-03-05T08:07:08;18.50;;;7.10;;
20653;SDS011;21083;50.898;4.902;2023-03-05T08:09:35;15.07;;;6.40;;
20653;SDS011;21083;50.898;4.902;2023-03-05T08:12:02;19.63;;;7.60;;
20653;SDS011;21083;50.898;4.902;2023-03-05T08:14:30;17.05;;;6.90;;
20653;SDS011;21083;50.898;4.902;2023-03-05T08:16:57;16.52;;;6.95;;
20653;SDS011;21083;50.898;4.902;2023-03-05T08:19:24;19.20;;;8.00;;
20653;SDS011;21083;50.898;4.902;2023-03-05T08:21:52;17.25;;;6.80;;
20653;SDS011;21083;50.898;4.902;2023-03-05T08:24:20;14.40;;;6.40;;
20653;SDS011;21083;50.898;4.902;2023-03-05T08:26:53;19.70;;;6.90;;
20653;SDS011;21083;50.898;4.902;2023-03-05T08:29:20;16.63;;;5.95;;
20653;SDS011;21083;50.898;4.902;2023-03-05T08:31:47;12.45;;;5.43;;
20653;SDS011;21083;50.898;4.902;2023-03-05T08:34:16;15.05;;;6.20;;
20653;SDS011;21083;50.898;4.902;2023-03-05T08:36:43;19.02;;;6.22;;
20653;SDS011;21083;50.898;4.902;2023-03-05T08:39:12;16.02;;;4.88;;
20653;SDS011;21083;50.898;4.902;2023-03-05T08:41:41;11.98;;;4.75;;
20653;SDS011;21083;50.898;4.902;2023-03-05T08:44:08;16.23;;;4.75;;
20653;SDS011;21083;50.898;4.902;2023-03-05T08:46:37;13.02;;;4.20;;
20653;SDS011;21083;50.898;4.902;2023-03-05T08:49:05;12.43;;;5.07;;
20653;SDS011;21083;50.898;4.902;2023-03-05T08:54:02;11.38;;;4.47;;
20653;SDS011;21083;50.898;4.902;2023-03-05T08:56:31;12.73;;;4.97;;
20653;SDS011;21083;50.898;4.902;2023-03-05T08:59:00;14.32;;;4.80;;
20653;SDS011;21083;50.898;4.902;2023-03-05T09:01:28;13.18;;;4.50;;
20653;SDS011;21083;50.898;4.902;2023-03-05T09:03:58;11.48;;;4.47;;
20653;SDS011;21083;50.898;4.902;2023-03-05T09:06:26;12.85;;;4.30;;
20653;SDS011;21083;50.898;4.902;2023-03-05T09:08:53;11.93;;;4.65;;
20653;SDS011;21083;50.898;4.902;2023-03-05T09:11:20;11.90;;;5.00;;
20653;SDS011;21083;50.898;4.902;2023-03-05T09:13:47;14.07;;;5.07;;
20653;SDS011;21083;50.898;4.902;2023-03-05T09:16:17;12.00;;;4.95;;
20653;SDS011;21083;50.898;4.902;2023-03-05T09:18:45;13.70;;;5.35;;
20653;SDS011;21083;50.898;4.902;2023-03-05T09:21:13;12.07;;;5.32;;
20653;SDS011;21083;50.898;4.902;2023-03-05T09:23:41;14.88;;;4.80;;
20653;SDS011;21083;50.898;4.902;2023-03-05T09:26:10;12.63;;;4.68;;
20653;SDS011;21083;50.898;4.902;2023-03-05T09:28:38;10.35;;;4.57;;
20653;SDS011;21083;50.898;4.902;2023-03-05T09:31:05;11.98;;;4.05;;
20653;SDS011;21083;50.898;4.902;2023-03-05T09:33:34;10.75;;;4.03;;
20653;SDS011;21083;50.898;4.902;2023-03-05T09:36:03;10.27;;;4.43;;
20653;SDS011;21083;50.898;4.902;2023-03-05T09:38:32;11.63;;;5.05;;
20653;SDS011;21083;50.898;4.902;2023-03-05T09:41:01;13.10;;;5.50;;
20653;SDS011;21083;50.898;4.902;2023-03-05T09:43:35;13.90;;;7.00;;
20653;SDS011;21083;50.898;4.902;2023-03-05T09:46:12;14.32;;;7.88;;
20653;SDS011;21083;50.898;4.902;2023-03-05T09:48:51;15.10;;;7.57;;
20653;SDS011;21083;50.898;4.902;2023-03-05T09:51:24;14.90;;;7.18;;
20653;SDS011;21083;50.898;4.902;2023-03-05T09:53:57;15.45;;;8.02;;
20653;SDS011;21083;50.898;4.902;2023-03-05T09:56:28;16.08;;;8.52;;
20653;SDS011;21083;50.898;4.902;2023-03-05T09:59:01;14.38;;;7.32;;
20653;SDS011;21083;50.898;4.902;2023-03-05T10:01:33;14.60;;;6.40;;
20653;SDS011;21083;50.898;4.902;2023-03-05T10:04:11;13.40;;;6.57;;
20653;SDS011;21083;50.898;4.902;2023-03-05T10:06:44;11.55;;;5.50;;
20653;SDS011;21083;50.898;4.902;2023-03-05T10:09:17;12.52;;;6.45;;
20653;SDS011;21083;50.898;4.902;2023-03-05T10:11:56;15.40;;;7.00;;
20653;SDS011;21083;50.898;4.902;2023-03-05T10:14:27;14.50;;;6.80;;
20653;SDS011;21083;50.898;4.902;2023-03-05T10:19:54;12.77;;;6.28;;
20653;SDS011;21083;50.898;4.902;2023-03-05T10:22:36;13.32;;;6.43;;
20653;SDS011;21083;50.898;4.902;2023-03-05T10:25:17;15.35;;;8.02;;
20653;SDS011;21083;50.898;4.902;2023-03-05T10:27:50;13.57;;;7.82;;
20653;SDS011;21083;50.898;4.902;2023-03-05T10:30:27;14.38;;;7.38;;
20653;SDS011;21083;50.898;4.902;2023-03-05T10:33:03;15.43;;;7.75;;
20653;SDS011;21083;50.898;4.902;2023-03-05T10:35:45;14.45;;;6.75;;
20653;SDS011;21083;50.898;4.902;2023-03-05T10:41:32;12.93;;;6.22;;
20653;SDS011;21083;50.898;4.902;2023-03-05T10:44:08;15.27;;;7.35;;
20653;SDS011;21083;50.898;4.902;2023-03-05T10:46:40;11.75;;;5.65;;
20653;SDS011;21083;50.898;4.902;2023-03-05T10:49:13;13.55;;;7.15;;
20653;SDS011;21083;50.898;4.902;2023-03-05T10:51:46;13.40;;;6.70;;
20653;SDS011;21083;50.898;4.902;2023-03-05T10:54:18;11.45;;;6.13;;
20653;SDS011;21083;50.898;4.902;2023-03-05T10:56:50;11.25;;;5.20;;
20653;SDS011;21083;50.898;4.902;2023-03-05T10:59:28;11.07;;;5.20;;
20653;SDS011;21083;50.898;4.902;2023-03-05T11:02:06;12.80;;;5.72;;
20653;SDS011;21083;50.898;4.902;2023-03-05T11:04:34;11.30;;;4.90;;
20653;SDS011;21083;50.898;4.902;2023-03-05T11:07:11;9.68;;;4.30;;
20653;SDS011;21083;50.898;4.902;2023-03-05T11:10:13;9.07;;;4.38;;
20653;SDS011;21083;50.898;4.902;2023-03-05T11:12:42;8.38;;;3.88;;
20653;SDS011;21083;50.898;4.902;2023-03-05T11:15:23;9.88;;;4.03;;
20653;SDS011;21083;50.898;4.902;2023-03-05T11:18:03;10.27;;;4.20;;
20653;SDS011;21083;50.898;4.902;2023-03-05T11:20:33;8.23;;;3.45;;
20653;SDS011;21083;50.898;4.902;2023-03-05T11:23:03;8.30;;;3.35;;
20653;SDS011;21083;50.898;4.902;2023-03-05T11:25:32;8.35;;;3.35;;
20653;SDS011;21083;50.898;4.902;2023-03-05T11:28:00;5.30;;;2.20;;
20653;SDS011;21083;50.898;4.902;2023-03-05T11:30:28;6.82;;;2.92;;
20653;SDS011;21083;50.898;4.902;2023-03-05T11:35:44;8.60;;;2.95;;
20653;SDS011;21083;50.898;4.902;2023-03-05T11:38:17;7.53;;;2.65;;
20653;SDS011;21083;50.898;4.902;2023-03-05T11:40:47;8.05;;;2.70;;
20653;SDS011;21083;50.898;4.902;2023-03-05T11:43:17;6.72;;;2.60;;
20653;SDS011;21083;50.898;4.902;2023-03-05T11:45:46;6.03;;;1.67;;
20653;SDS011;21083;50.898;4.902;2023-03-05T11:48:17;3.83;;;1.60;;
20653;SDS011;21083;50.898;4.902;2023-03-05T11:50:50;4.88;;;1.60;;
20653;SDS011;21083;50.898;4.902;2023-03-05T11:53:22;4.07;;;1.42;;
20653;SDS011;21083;50.898;4.902;2023-03-05T11:55:53;4.95;;;1.65;;
20653;SDS011;21083;50.898;4.902;2023-03-05T11:58:26;4.35;;;1.70;;
20653;SDS011;21083;50.898;4.902;2023-03-05T12:00:57;6.75;;;1.70;;
20653;SDS011;21083;50.898;4.902;2023-03-05T12:03:25;5.10;;;1.70;;
20653;SDS011;21083;50.898;4.902;2023-03-05T12:05:57;5.88;;;1.73;;
20653;SDS011;21083;50.898;4.902;2023-03-05T12:08:31;5.13;;;1.77;;
20653;SDS011;21083;50.898;4.902;2023-03-05T12:11:03;5.43;;;2.00;;
20653;SDS011;21083;50.898;4.902;2023-03-05T12:13:32;7.85;;;1.92;;
20653;SDS011;21083;50.898;4.902;2023-03-05T12:16:05;8.57;;;3.08;;
20653;SDS011;21083;50.898;4.902;2023-03-05T12:18:51;7.40;;;2.53;;
20653;SDS011;21083;50.898;4.902;2023-03-05T12:21:28;9.70;;;2.75;;
20653;SDS011;21083;50.898;4.902;2023-03-05T12:24:02;6.95;;;2.38;;
20653;SDS011;21083;50.898;4.902;2023-03-05T12:26:55;10.48;;;2.30;;
20653;SDS011;21083;50.898;4.902;2023-03-05T12:29:37;4.30;;;1.70;;
20653;SDS011;21083;50.898;4.902;2023-03-05T12:35:24;11.25;;;3.22;;
20653;SDS011;21083;50.898;4.902;2023-03-05T12:38:02;6.57;;;2.35;;
20653;SDS011;21083;50.898;4.902;2023-03-05T12:40:31;7.20;;;2.40;;
20653;SDS011;21083;50.898;4.902;2023-03-05T12:43:01;9.18;;;3.15;;
20653;SDS011;21083;50.898;4.902;2023-03-05T12:45:29;5.38;;;2.20;;
20653;SDS011;21083;50.898;4.902;2023-03-05T12:51:10;4.78;;;2.30;;
20653;SDS011;21083;50.898;4.902;2023-03-05T12:53:54;6.03;;;2.15;;
20653;SDS011;21083;50.898;4.902;2023-03-05T12:56:21;7.13;;;2.60;;
20653;SDS011;21083;50.898;4.902;2023-03-05T12:58:56;6.82;;;2.20;;
20653;SDS011;21083;50.898;4.902;2023-03-05T13:01:28;8.75;;;3.00;;
20653;SDS011;21083;50.898;4.902;2023-03-05T13:04:00;6.78;;;2.67;;
20653;SDS011;21083;50.898;4.902;2023-03-05T13:06:35;6.65;;;2.28;;
20653;SDS011;21083;50.898;4.902;2023-03-05T13:09:06;6.47;;;2.33;;
20653;SDS011;21083;50.898;4.902;2023-03-05T13:11:40;7.68;;;2.78;;
20653;SDS011;21083;50.898;4.902;2023-03-05T13:14:22;8.93;;;2.38;;
20653;SDS011;21083;50.898;4.902;2023-03-05T13:16:57;7.93;;;2.15;;
20653;SDS011;21083;50.898;4.902;2023-03-05T13:19:25;7.47;;;2.60;;
20653;SDS011;21083;50.898;4.902;2023-03-05T13:21:56;6.15;;;1.85;;
20653;SDS011;21083;50.898;4.902;2023-03-05T13:24:25;5.65;;;1.83;;
20653;SDS011;21083;50.898;4.902;2023-03-05T13:26:53;6.93;;;2.50;;
20653;SDS011;21083;50.898;4.902;2023-03-05T13:29:21;5.32;;;1.90;;
20653;SDS011;21083;50.898;4.902;2023-03-05T13:31:53;5.40;;;1.90;;
20653;SDS011;21083;50.898;4.902;2023-03-05T13:34:23;4.22;;;2.33;;
20653;SDS011;21083;50.898;4.902;2023-03-05T13:36:55;6.80;;;1.50;;
20653;SDS011;21083;50.898;4.902;2023-03-05T13:39:24;9.23;;;2.20;;
20653;SDS011;21083;50.898;4.902;2023-03-05T13:41:57;4.80;;;1.75;;
20653;SDS011;21083;50.898;4.902;2023-03-05T13:44:28;9.27;;;3.20;;
20653;SDS011;21083;50.898;4.902;2023-03-05T13:47:07;6.63;;;2.13;;
20653;SDS011;21083;50.898;4.902;2023-03-05T13:49:40;6.07;;;2.08;;
20653;SDS011;21083;50.898;4.902;2023-03-05T13:52:08;7.88;;;2.22;;
20653;SDS011;21083;50.898;4.902;2023-03-05T13:54:39;11.98;;;2.83;;
20653;SDS011;21083;50.898;4.902;2023-03-05T13:57:29;5.60;;;2.20;;
20653;SDS011;21083;50.898;4.902;2023-03-05T13:59:59;8.95;;;2.55;;
20653;SDS011;21083;50.898;4.902;2023-03-05T14:02:27;9.32;;;2.20;;
20653;SDS011;21083;50.898;4.902;2023-03-05T14:04:55;10.95;;;2.83;;
20653;SDS011;21083;50.898;4.902;2023-03-05T14:07:30;11.27;;;4.20;;
20653;SDS011;21083;50.898;4.902;2023-03-05T14:09:59;11.68;;;4.72;;
20653;SDS011;21083;50.898;4.902;2023-03-05T14:12:28;11.80;;;4.43;;
20653;SDS011;21083;50.898;4.902;2023-03-05T14:15:01;12.27;;;5.10;;
20653;SDS011;21083;50.898;4.902;2023-03-05T14:17:36;14.30;;;5.75;;
20653;SDS011;21083;50.898;4.902;2023-03-05T14:20:06;12.23;;;5.47;;
20653;SDS011;21083;50.898;4.902;2023-03-05T14:22:36;13.52;;;6.05;;
20653;SDS011;21083;50.898;4.902;2023-03-05T14:25:05;12.68;;;5.78;;
20653;SDS011;21083;50.898;4.902;2023-03-05T14:27:47;10.75;;;5.00;;
20653;SDS011;21083;50.898;4.902;2023-03-05T14:30:18;12.38;;;4.28;;
20653;SDS011;21083;50.898;4.902;2023-03-05T14:32:49;9.85;;;4.40;;
20653;SDS011;21083;50.898;4.902;2023-03-05T14:35:18;12.35;;;3.60;;
20653;SDS011;21083;50.898;4.902;2023-03-05T14:37:48;7.45;;;2.65;;
20653;SDS011;21083;50.898;4.902;2023-03-05T14:40:17;8.75;;;2.42;;
20653;SDS011;21083;50.898;4.902;2023-03-05T14:42:50;7.63;;;2.80;;
20653;SDS011;21083;50.898;4.902;2023-03-05T14:45:20;7.47;;;3.15;;
20653;SDS011;21083;50.898;4.902;2023-03-05T14:47:49;7.72;;;1.80;;
20653;SDS011;21083;50.898;4.902;2023-03-05T14:50:18;4.53;;;1.50;;
20653;SDS011;21083;50.898;4.902;2023-03-05T14:52:47;3.95;;;1.77;;
20653;SDS011;21083;50.898;4.902;2023-03-05T14:55:17;3.38;;;1.48;;
20653;SDS011;21083;50.898;4.902;2023-03-05T14:57:45;9.23;;;2.25;;
20653;SDS011;21083;50.898;4.902;2023-03-05T15:00:15;6.70;;;3.15;;
20653;SDS011;21083;50.898;4.902;2023-03-05T15:02:45;5.82;;;1.90;;
20653;SDS011;21083;50.898;4.902;2023-03-05T15:05:12;5.50;;;1.60;;
20653;SDS011;21083;50.898;4.902;2023-03-05T15:07:39;5.47;;;2.10;;
20653;SDS011;21083;50.898;4.902;2023-03-05T15:10:07;6.30;;;2.60;;
20653;SDS011;21083;50.898;4.902;2023-03-05T15:12:35;6.90;;;2.83;;
20653;SDS011;21083;50.898;4.902;2023-03-05T15:15:02;7.90;;;2.60;;